sensor_id;sensor_type;location;lat;lon;timestamp;P1;durP1;ratioP1;P2;durP2;ratioP2
16393;SDS011;8306;51.128;4.476;2022-12-18T00:01:33;67.10;;;28.27;;
16393;SDS011;8306;51.128;4.476;2022-12-18T00:04:00;73.17;;;29.30;;
16393;SDS011;8306;51.128;4.476;2022-12-18T00:06:26;79.50;;;30.97;;
16393;SDS011;8306;51.128;4.476;2022-12-18T00:08:52;71.23;;;29.40;;
16393;SDS011;8306;51.128;4.476;2022-12-18T00:11:19;74.07;;;32.33;;
16393;SDS011;8306;51.128;4.476;2022-12-18T00:13:45;75.53;;;30.70;;
16393;SDS011;8306;51.128;4.476;2022-12-18T00:16:15;84.80;;;32.77;;
16393;SDS011;8306;51.128;4.476;2022-12-18T00:18:41;81.20;;;31.87;;
16393;SDS011;8306;51.128;4.476;2022-12-18T00:21:08;68.30;;;28.87;;
16393;SDS011;8306;51.128;4.476;2022-12-18T00:23:34;79.30;;;32.30;;
16393;SDS011;8306;51.128;4.476;2022-12-18T00:26:04;76.87;;;30.30;;
16393;SDS011;8306;51.128;4.476;2022-12-18T00:28:27;76.47;;;31.33;;
16393;SDS011;8306;51.128;4.476;2022-12-18T00:33:28;85.57;;;32.43;;
16393;SDS011;8306;51.128;4.476;2022-12-18T00:35:59;74.97;;;30.63;;
16393;SDS011;8306;51.128;4.476;2022-12-18T00:38:21;80.80;;;30.43;;
16393;SDS011;8306;51.128;4.476;2022-12-18T00:40:48;79.93;;;31.33;;
16393;SDS011;8306;51.128;4.476;2022-12-18T00:43:14;82.70;;;31.53;;
16393;SDS011;8306;51.128;4.476;2022-12-18T00:45:41;75.67;;;31.20;;
16393;SDS011;8306;51.128;4.476;2022-12-18T00:48:07;87.60;;;30.90;;
16393;SDS011;8306;51.128;4.476;2022-12-18T00:50:34;77.13;;;30.60;;
16393;SDS011;8306;51.128;4.476;2022-12-18T00:53:00;76.47;;;30.70;;
16393;SDS011;8306;51.128;4.476;2022-12-18T00:55:27;85.73;;;32.07;;
16393;SDS011;8306;51.128;4.476;2022-12-18T00:57:53;76.27;;;31.73;;
16393;SDS011;8306;51.128;4.476;2022-12-18T01:00:20;64.13;;;27.50;;
16393;SDS011;8306;51.128;4.476;2022-12-18T01:02:46;75.93;;;30.30;;
16393;SDS011;8306;51.128;4.476;2022-12-18T01:05:13;76.60;;;29.97;;
16393;SDS011;8306;51.128;4.476;2022-12-18T01:07:39;74.00;;;30.23;;
16393;SDS011;8306;51.128;4.476;2022-12-18T01:10:06;72.43;;;29.63;;
16393;SDS011;8306;51.128;4.476;2022-12-18T01:12:32;82.07;;;31.37;;
16393;SDS011;8306;51.128;4.476;2022-12-18T01:14:59;78.47;;;30.10;;
16393;SDS011;8306;51.128;4.476;2022-12-18T01:17:25;89.23;;;34.63;;
16393;SDS011;8306;51.128;4.476;2022-12-18T01:19:51;82.03;;;33.47;;
16393;SDS011;8306;51.128;4.476;2022-12-18T01:22:18;80.50;;;31.67;;
16393;SDS011;8306;51.128;4.476;2022-12-18T01:24:44;79.90;;;31.93;;
16393;SDS011;8306;51.128;4.476;2022-12-18T01:27:11;71.43;;;29.10;;
16393;SDS011;8306;51.128;4.476;2022-12-18T01:29:37;77.23;;;31.37;;
16393;SDS011;8306;51.128;4.476;2022-12-18T01:32:04;77.43;;;31.30;;
16393;SDS011;8306;51.128;4.476;2022-12-18T01:34:30;78.77;;;29.40;;
16393;SDS011;8306;51.128;4.476;2022-12-18T01:36:57;66.97;;;30.60;;
16393;SDS011;8306;51.128;4.476;2022-12-18T01:39:23;71.53;;;31.13;;
16393;SDS011;8306;51.128;4.476;2022-12-18T01:41:50;66.37;;;28.70;;
16393;SDS011;8306;51.128;4.476;2022-12-18T01:47:18;71.63;;;30.73;;
16393;SDS011;8306;51.128;4.476;2022-12-18T01:49:49;75.33;;;32.27;;
16393;SDS011;8306;51.128;4.476;2022-12-18T01:52:15;60.90;;;26.87;;
16393;SDS011;8306;51.128;4.476;2022-12-18T01:54:42;69.30;;;29.63;;
16393;SDS011;8306;51.128;4.476;2022-12-18T01:57:08;63.83;;;27.47;;
16393;SDS011;8306;51.128;4.476;2022-12-18T01:59:34;67.13;;;28.50;;
16393;SDS011;8306;51.128;4.476;2022-12-18T02:02:01;63.23;;;27.63;;
16393;SDS011;8306;51.128;4.476;2022-12-18T02:04:28;74.13;;;28.13;;
16393;SDS011;8306;51.128;4.476;2022-12-18T02:09:37;72.50;;;27.47;;
16393;SDS011;8306;51.128;4.476;2022-12-18T02:14:51;69.07;;;29.40;;
16393;SDS011;8306;51.128;4.476;2022-12-18T02:17:19;57.27;;;27.50;;
16393;SDS011;8306;51.128;4.476;2022-12-18T02:27:36;65.83;;;27.87;;
16393;SDS011;8306;51.128;4.476;2022-12-18T02:30:03;67.20;;;26.47;;
16393;SDS011;8306;51.128;4.476;2022-12-18T02:32:37;57.10;;;24.93;;
16393;SDS011;8306;51.128;4.476;2022-12-18T02:35:03;61.30;;;26.43;;
16393;SDS011;8306;51.128;4.476;2022-12-18T02:37:29;50.63;;;24.03;;
16393;SDS011;8306;51.128;4.476;2022-12-18T02:39:56;52.67;;;24.67;;
16393;SDS011;8306;51.128;4.476;2022-12-18T02:42:22;56.13;;;25.97;;
16393;SDS011;8306;51.128;4.476;2022-12-18T02:44:49;56.37;;;25.47;;
16393;SDS011;8306;51.128;4.476;2022-12-18T02:47:16;56.57;;;26.43;;
16393;SDS011;8306;51.128;4.476;2022-12-18T02:49:49;62.47;;;26.70;;
16393;SDS011;8306;51.128;4.476;2022-12-18T02:52:38;55.53;;;25.37;;
16393;SDS011;8306;51.128;4.476;2022-12-18T02:57:40;53.57;;;24.60;;
16393;SDS011;8306;51.128;4.476;2022-12-18T03:00:07;56.07;;;25.23;;
16393;SDS011;8306;51.128;4.476;2022-12-18T03:02:37;58.83;;;26.47;;
16393;SDS011;8306;51.128;4.476;2022-12-18T03:05:10;52.83;;;24.67;;
16393;SDS011;8306;51.128;4.476;2022-12-18T03:07:43;53.07;;;24.67;;
16393;SDS011;8306;51.128;4.476;2022-12-18T03:10:13;62.43;;;25.27;;
16393;SDS011;8306;51.128;4.476;2022-12-18T03:12:41;49.27;;;23.43;;
16393;SDS011;8306;51.128;4.476;2022-12-18T03:15:09;61.43;;;25.60;;
16393;SDS011;8306;51.128;4.476;2022-12-18T03:17:48;59.53;;;25.33;;
16393;SDS011;8306;51.128;4.476;2022-12-18T03:20:12;51.57;;;24.70;;
16393;SDS011;8306;51.128;4.476;2022-12-18T03:22:37;49.70;;;24.00;;
16393;SDS011;8306;51.128;4.476;2022-12-18T03:25:04;53.73;;;25.00;;
16393;SDS011;8306;51.128;4.476;2022-12-18T03:27:30;50.83;;;23.33;;
16393;SDS011;8306;51.128;4.476;2022-12-18T03:30:03;43.27;;;23.50;;
16393;SDS011;8306;51.128;4.476;2022-12-18T03:32:29;51.50;;;23.03;;
16393;SDS011;8306;51.128;4.476;2022-12-18T03:34:56;50.30;;;23.83;;
16393;SDS011;8306;51.128;4.476;2022-12-18T03:37:21;43.40;;;20.83;;
16393;SDS011;8306;51.128;4.476;2022-12-18T03:39:48;48.50;;;22.60;;
16393;SDS011;8306;51.128;4.476;2022-12-18T03:42:37;45.37;;;21.97;;
16393;SDS011;8306;51.128;4.476;2022-12-18T03:47:29;41.13;;;21.53;;
16393;SDS011;8306;51.128;4.476;2022-12-18T03:55:14;43.30;;;22.43;;
16393;SDS011;8306;51.128;4.476;2022-12-18T03:57:40;47.93;;;21.87;;
16393;SDS011;8306;51.128;4.476;2022-12-18T04:00:11;38.37;;;21.07;;
16393;SDS011;8306;51.128;4.476;2022-12-18T04:02:37;45.90;;;21.67;;
16393;SDS011;8306;51.128;4.476;2022-12-18T04:05:04;49.70;;;21.87;;
16393;SDS011;8306;51.128;4.476;2022-12-18T04:07:30;39.57;;;20.73;;
16393;SDS011;8306;51.128;4.476;2022-12-18T04:09:56;39.80;;;20.27;;
16393;SDS011;8306;51.128;4.476;2022-12-18T04:12:26;45.57;;;21.00;;
16393;SDS011;8306;51.128;4.476;2022-12-18T04:14:52;48.40;;;23.10;;
16393;SDS011;8306;51.128;4.476;2022-12-18T04:17:18;41.33;;;20.10;;
16393;SDS011;8306;51.128;4.476;2022-12-18T04:19:45;41.33;;;20.23;;
16393;SDS011;8306;51.128;4.476;2022-12-18T04:22:11;38.47;;;20.50;;
16393;SDS011;8306;51.128;4.476;2022-12-18T04:24:38;37.37;;;20.17;;
16393;SDS011;8306;51.128;4.476;2022-12-18T04:27:04;40.90;;;20.67;;
16393;SDS011;8306;51.128;4.476;2022-12-18T04:29:31;36.43;;;17.70;;
16393;SDS011;8306;51.128;4.476;2022-12-18T04:31:57;40.20;;;19.77;;
16393;SDS011;8306;51.128;4.476;2022-12-18T04:34:24;38.20;;;20.60;;
16393;SDS011;8306;51.128;4.476;2022-12-18T04:36:50;41.73;;;20.10;;
16393;SDS011;8306;51.128;4.476;2022-12-18T04:39:17;26.70;;;18.20;;
16393;SDS011;8306;51.128;4.476;2022-12-18T04:41:43;37.83;;;18.57;;
16393;SDS011;8306;51.128;4.476;2022-12-18T04:44:10;36.57;;;17.77;;
16393;SDS011;8306;51.128;4.476;2022-12-18T04:46:36;33.40;;;18.90;;
16393;SDS011;8306;51.128;4.476;2022-12-18T04:49:03;32.27;;;18.97;;
16393;SDS011;8306;51.128;4.476;2022-12-18T04:51:29;36.27;;;19.67;;
16393;SDS011;8306;51.128;4.476;2022-12-18T04:53:56;36.60;;;19.77;;
16393;SDS011;8306;51.128;4.476;2022-12-18T04:56:22;36.23;;;19.03;;
16393;SDS011;8306;51.128;4.476;2022-12-18T04:58:48;32.40;;;20.00;;
16393;SDS011;8306;51.128;4.476;2022-12-18T05:01:16;34.17;;;18.47;;
16393;SDS011;8306;51.128;4.476;2022-12-18T05:03:42;32.13;;;19.00;;
16393;SDS011;8306;51.128;4.476;2022-12-18T05:06:08;35.53;;;19.17;;
16393;SDS011;8306;51.128;4.476;2022-12-18T05:08:34;31.93;;;18.17;;
16393;SDS011;8306;51.128;4.476;2022-12-18T05:11:02;31.03;;;18.33;;
16393;SDS011;8306;51.128;4.476;2022-12-18T05:13:27;35.53;;;19.10;;
16393;SDS011;8306;51.128;4.476;2022-12-18T05:15:54;31.47;;;18.30;;
16393;SDS011;8306;51.128;4.476;2022-12-18T05:18:21;37.30;;;20.03;;
16393;SDS011;8306;51.128;4.476;2022-12-18T05:20:47;32.30;;;18.83;;
16393;SDS011;8306;51.128;4.476;2022-12-18T05:23:13;31.47;;;18.87;;
16393;SDS011;8306;51.128;4.476;2022-12-18T05:25:40;31.97;;;19.07;;
16393;SDS011;8306;51.128;4.476;2022-12-18T05:28:06;36.07;;;20.43;;
16393;SDS011;8306;51.128;4.476;2022-12-18T05:30:33;36.67;;;20.23;;
16393;SDS011;8306;51.128;4.476;2022-12-18T05:32:59;29.60;;;19.27;;
16393;SDS011;8306;51.128;4.476;2022-12-18T05:35:26;30.43;;;17.03;;
16393;SDS011;8306;51.128;4.476;2022-12-18T05:37:52;35.57;;;19.10;;
16393;SDS011;8306;51.128;4.476;2022-12-18T05:40:19;30.87;;;18.27;;
16393;SDS011;8306;51.128;4.476;2022-12-18T05:42:45;30.07;;;17.17;;
16393;SDS011;8306;51.128;4.476;2022-12-18T05:45:12;27.70;;;16.90;;
16393;SDS011;8306;51.128;4.476;2022-12-18T05:47:38;22.37;;;15.73;;
16393;SDS011;8306;51.128;4.476;2022-12-18T05:50:05;32.53;;;19.20;;
16393;SDS011;8306;51.128;4.476;2022-12-18T05:52:31;30.53;;;18.13;;
16393;SDS011;8306;51.128;4.476;2022-12-18T05:54:58;25.57;;;17.10;;
16393;SDS011;8306;51.128;4.476;2022-12-18T05:57:24;31.70;;;17.73;;
16393;SDS011;8306;51.128;4.476;2022-12-18T05:59:51;29.73;;;17.57;;
16393;SDS011;8306;51.128;4.476;2022-12-18T06:02:17;22.37;;;15.83;;
16393;SDS011;8306;51.128;4.476;2022-12-18T06:04:44;32.60;;;18.10;;
16393;SDS011;8306;51.128;4.476;2022-12-18T06:07:10;28.60;;;16.70;;
16393;SDS011;8306;51.128;4.476;2022-12-18T06:09:37;29.23;;;17.43;;
16393;SDS011;8306;51.128;4.476;2022-12-18T06:12:03;26.40;;;16.13;;
16393;SDS011;8306;51.128;4.476;2022-12-18T06:14:30;25.67;;;17.30;;
16393;SDS011;8306;51.128;4.476;2022-12-18T06:16:56;26.37;;;15.70;;
16393;SDS011;8306;51.128;4.476;2022-12-18T06:19:23;25.00;;;15.83;;
16393;SDS011;8306;51.128;4.476;2022-12-18T06:21:49;23.23;;;16.40;;
16393;SDS011;8306;51.128;4.476;2022-12-18T06:24:16;26.27;;;16.03;;
16393;SDS011;8306;51.128;4.476;2022-12-18T06:26:42;27.07;;;16.70;;
16393;SDS011;8306;51.128;4.476;2022-12-18T06:29:08;23.40;;;16.40;;
16393;SDS011;8306;51.128;4.476;2022-12-18T06:31:35;26.40;;;16.20;;
16393;SDS011;8306;51.128;4.476;2022-12-18T06:34:02;19.57;;;14.77;;
16393;SDS011;8306;51.128;4.476;2022-12-18T06:36:28;24.23;;;16.03;;
16393;SDS011;8306;51.128;4.476;2022-12-18T06:38:56;26.33;;;16.37;;
16393;SDS011;8306;51.128;4.476;2022-12-18T06:41:23;23.67;;;15.07;;
16393;SDS011;8306;51.128;4.476;2022-12-18T06:43:49;21.07;;;15.30;;
16393;SDS011;8306;51.128;4.476;2022-12-18T06:46:16;23.97;;;15.13;;
16393;SDS011;8306;51.128;4.476;2022-12-18T06:48:42;22.43;;;15.33;;
16393;SDS011;8306;51.128;4.476;2022-12-18T06:51:09;25.10;;;16.73;;
16393;SDS011;8306;51.128;4.476;2022-12-18T06:53:35;22.40;;;15.60;;
16393;SDS011;8306;51.128;4.476;2022-12-18T06:56:02;31.13;;;17.03;;
16393;SDS011;8306;51.128;4.476;2022-12-18T06:58:31;23.03;;;15.83;;
16393;SDS011;8306;51.128;4.476;2022-12-18T07:01:01;18.90;;;14.87;;
16393;SDS011;8306;51.128;4.476;2022-12-18T07:03:27;28.80;;;15.83;;
16393;SDS011;8306;51.128;4.476;2022-12-18T07:05:53;29.33;;;16.67;;
16393;SDS011;8306;51.128;4.476;2022-12-18T07:08:20;24.37;;;14.93;;
16393;SDS011;8306;51.128;4.476;2022-12-18T07:10:46;20.43;;;15.53;;
16393;SDS011;8306;51.128;4.476;2022-12-18T07:13:13;32.67;;;16.07;;
16393;SDS011;8306;51.128;4.476;2022-12-18T07:15:39;25.00;;;15.23;;
16393;SDS011;8306;51.128;4.476;2022-12-18T07:18:06;20.37;;;15.20;;
16393;SDS011;8306;51.128;4.476;2022-12-18T07:20:32;25.47;;;16.23;;
16393;SDS011;8306;51.128;4.476;2022-12-18T07:23:01;27.40;;;16.53;;
16393;SDS011;8306;51.128;4.476;2022-12-18T07:25:25;22.47;;;17.27;;
16393;SDS011;8306;51.128;4.476;2022-12-18T07:27:52;30.30;;;18.27;;
16393;SDS011;8306;51.128;4.476;2022-12-18T07:30:18;27.60;;;16.20;;
16393;SDS011;8306;51.128;4.476;2022-12-18T07:32:45;21.17;;;15.17;;
16393;SDS011;8306;51.128;4.476;2022-12-18T07:35:11;28.67;;;15.73;;
16393;SDS011;8306;51.128;4.476;2022-12-18T07:37:38;18.33;;;14.80;;
16393;SDS011;8306;51.128;4.476;2022-12-18T07:40:04;17.37;;;13.97;;
16393;SDS011;8306;51.128;4.476;2022-12-18T07:42:31;19.33;;;15.13;;
16393;SDS011;8306;51.128;4.476;2022-12-18T07:44:58;17.37;;;14.67;;
16393;SDS011;8306;51.128;4.476;2022-12-18T07:47:24;24.43;;;16.83;;
16393;SDS011;8306;51.128;4.476;2022-12-18T07:49:50;22.30;;;16.97;;
16393;SDS011;8306;51.128;4.476;2022-12-18T07:52:17;24.23;;;18.83;;
16393;SDS011;8306;51.128;4.476;2022-12-18T07:54:43;33.90;;;21.87;;
16393;SDS011;8306;51.128;4.476;2022-12-18T07:57:10;27.13;;;18.50;;
16393;SDS011;8306;51.128;4.476;2022-12-18T07:59:36;19.73;;;15.77;;
16393;SDS011;8306;51.128;4.476;2022-12-18T08:02:03;22.27;;;14.50;;
16393;SDS011;8306;51.128;4.476;2022-12-18T08:04:29;20.33;;;14.13;;
16393;SDS011;8306;51.128;4.476;2022-12-18T08:06:56;17.60;;;14.87;;
16393;SDS011;8306;51.128;4.476;2022-12-18T08:09:22;28.30;;;16.87;;
16393;SDS011;8306;51.128;4.476;2022-12-18T08:11:49;24.23;;;16.63;;
16393;SDS011;8306;51.128;4.476;2022-12-18T08:14:15;19.43;;;15.03;;
16393;SDS011;8306;51.128;4.476;2022-12-18T08:16:42;18.00;;;14.37;;
16393;SDS011;8306;51.128;4.476;2022-12-18T08:19:08;16.43;;;14.63;;
16393;SDS011;8306;51.128;4.476;2022-12-18T08:21:34;23.87;;;15.03;;
16393;SDS011;8306;51.128;4.476;2022-12-18T08:24:01;17.97;;;14.43;;
16393;SDS011;8306;51.128;4.476;2022-12-18T08:26:29;21.23;;;15.07;;
16393;SDS011;8306;51.128;4.476;2022-12-18T08:28:54;22.53;;;15.80;;
16393;SDS011;8306;51.128;4.476;2022-12-18T08:31:20;22.90;;;16.70;;
16393;SDS011;8306;51.128;4.476;2022-12-18T08:33:50;23.20;;;15.50;;
16393;SDS011;8306;51.128;4.476;2022-12-18T08:36:16;21.30;;;14.97;;
16393;SDS011;8306;51.128;4.476;2022-12-18T08:38:43;18.33;;;14.97;;
16393;SDS011;8306;51.128;4.476;2022-12-18T08:41:10;21.30;;;15.60;;
16393;SDS011;8306;51.128;4.476;2022-12-18T08:43:36;20.07;;;14.77;;
16393;SDS011;8306;51.128;4.476;2022-12-18T08:46:21;15.63;;;13.83;;
16393;SDS011;8306;51.128;4.476;2022-12-18T08:48:47;14.97;;;13.33;;
16393;SDS011;8306;51.128;4.476;2022-12-18T08:51:15;16.00;;;13.07;;
16393;SDS011;8306;51.128;4.476;2022-12-18T08:53:40;14.57;;;12.70;;
16393;SDS011;8306;51.128;4.476;2022-12-18T08:56:07;16.50;;;14.10;;
16393;SDS011;8306;51.128;4.476;2022-12-18T08:58:33;14.50;;;13.00;;
16393;SDS011;8306;51.128;4.476;2022-12-18T09:01:00;15.47;;;13.03;;
16393;SDS011;8306;51.128;4.476;2022-12-18T09:03:26;15.00;;;12.47;;
16393;SDS011;8306;51.128;4.476;2022-12-18T09:05:52;17.47;;;12.93;;
16393;SDS011;8306;51.128;4.476;2022-12-18T09:08:19;14.57;;;13.00;;
16393;SDS011;8306;51.128;4.476;2022-12-18T09:10:46;18.23;;;14.43;;
16393;SDS011;8306;51.128;4.476;2022-12-18T09:13:12;14.63;;;13.13;;
16393;SDS011;8306;51.128;4.476;2022-12-18T09:15:42;19.77;;;14.10;;
16393;SDS011;8306;51.128;4.476;2022-12-18T09:18:08;15.63;;;13.70;;
16393;SDS011;8306;51.128;4.476;2022-12-18T09:20:35;14.90;;;13.30;;
16393;SDS011;8306;51.128;4.476;2022-12-18T09:23:01;15.90;;;13.17;;
16393;SDS011;8306;51.128;4.476;2022-12-18T09:25:28;14.13;;;12.77;;
16393;SDS011;8306;51.128;4.476;2022-12-18T09:27:54;14.03;;;12.53;;
16393;SDS011;8306;51.128;4.476;2022-12-18T09:30:28;17.50;;;15.88;;
16393;SDS011;8306;51.128;4.476;2022-12-18T09:32:55;17.17;;;15.37;;
16393;SDS011;8306;51.128;4.476;2022-12-18T09:35:21;22.47;;;16.33;;
16393;SDS011;8306;51.128;4.476;2022-12-18T09:37:48;14.57;;;13.17;;
16393;SDS011;8306;51.128;4.476;2022-12-18T09:40:18;14.67;;;13.13;;
16393;SDS011;8306;51.128;4.476;2022-12-18T09:42:41;15.97;;;12.73;;
16393;SDS011;8306;51.128;4.476;2022-12-18T09:45:07;14.03;;;12.63;;
16393;SDS011;8306;51.128;4.476;2022-12-18T09:47:35;14.93;;;13.43;;
16393;SDS011;8306;51.128;4.476;2022-12-18T09:50:04;15.03;;;13.63;;
16393;SDS011;8306;51.128;4.476;2022-12-18T09:52:37;14.37;;;13.07;;
16393;SDS011;8306;51.128;4.476;2022-12-18T09:54:55;15.30;;;13.50;;
16393;SDS011;8306;51.128;4.476;2022-12-18T09:57:23;14.07;;;12.67;;
16393;SDS011;8306;51.128;4.476;2022-12-18T09:59:53;17.10;;;13.33;;
16393;SDS011;8306;51.128;4.476;2022-12-18T10:02:19;15.03;;;13.53;;
16393;SDS011;8306;51.128;4.476;2022-12-18T10:05:24;17.20;;;13.57;;
16393;SDS011;8306;51.128;4.476;2022-12-18T10:07:22;17.03;;;13.77;;
16393;SDS011;8306;51.128;4.476;2022-12-18T10:10:06;15.20;;;13.40;;
16393;SDS011;8306;51.128;4.476;2022-12-18T10:12:42;15.43;;;14.00;;
16393;SDS011;8306;51.128;4.476;2022-12-18T10:20:44;15.73;;;13.60;;
16393;SDS011;8306;51.128;4.476;2022-12-18T10:23:32;15.47;;;13.70;;
16393;SDS011;8306;51.128;4.476;2022-12-18T10:26:07;19.53;;;14.53;;
16393;SDS011;8306;51.128;4.476;2022-12-18T10:28:33;13.40;;;12.17;;
16393;SDS011;8306;51.128;4.476;2022-12-18T10:30:59;16.97;;;14.10;;
16393;SDS011;8306;51.128;4.476;2022-12-18T10:33:29;15.83;;;14.13;;
16393;SDS011;8306;51.128;4.476;2022-12-18T10:35:55;21.80;;;13.83;;
16393;SDS011;8306;51.128;4.476;2022-12-18T10:38:22;15.83;;;14.20;;
16393;SDS011;8306;51.128;4.476;2022-12-18T10:41:01;17.97;;;14.87;;
16393;SDS011;8306;51.128;4.476;2022-12-18T10:43:32;15.20;;;13.70;;
16393;SDS011;8306;51.128;4.476;2022-12-18T10:46:05;15.07;;;13.57;;
16393;SDS011;8306;51.128;4.476;2022-12-18T10:48:39;14.97;;;13.33;;
16393;SDS011;8306;51.128;4.476;2022-12-18T10:50:59;14.47;;;12.97;;
16393;SDS011;8306;51.128;4.476;2022-12-18T10:53:27;14.77;;;13.20;;
16393;SDS011;8306;51.128;4.476;2022-12-18T10:55:53;15.90;;;13.90;;
16393;SDS011;8306;51.128;4.476;2022-12-18T10:58:26;15.03;;;13.73;;
16393;SDS011;8306;51.128;4.476;2022-12-18T11:01:07;14.63;;;13.20;;
16393;SDS011;8306;51.128;4.476;2022-12-18T11:03:39;16.23;;;14.17;;
16393;SDS011;8306;51.128;4.476;2022-12-18T11:06:05;20.37;;;14.47;;
16393;SDS011;8306;51.128;4.476;2022-12-18T11:08:37;28.57;;;19.93;;
16393;SDS011;8306;51.128;4.476;2022-12-18T11:11:04;15.10;;;13.60;;
16393;SDS011;8306;51.128;4.476;2022-12-18T11:13:30;14.03;;;12.77;;
16393;SDS011;8306;51.128;4.476;2022-12-18T11:15:57;14.07;;;12.73;;
16393;SDS011;8306;51.128;4.476;2022-12-18T11:18:27;15.67;;;14.27;;
16393;SDS011;8306;51.128;4.476;2022-12-18T11:20:59;14.10;;;12.70;;
16393;SDS011;8306;51.128;4.476;2022-12-18T11:23:22;13.27;;;12.07;;
16393;SDS011;8306;51.128;4.476;2022-12-18T11:25:55;14.97;;;12.83;;
16393;SDS011;8306;51.128;4.476;2022-12-18T11:33:58;13.93;;;12.53;;
16393;SDS011;8306;51.128;4.476;2022-12-18T11:36:30;13.97;;;12.67;;
16393;SDS011;8306;51.128;4.476;2022-12-18T11:38:55;14.83;;;11.70;;
16393;SDS011;8306;51.128;4.476;2022-12-18T11:41:23;13.37;;;12.17;;
16393;SDS011;8306;51.128;4.476;2022-12-18T11:43:54;13.90;;;12.40;;
16393;SDS011;8306;51.128;4.476;2022-12-18T11:46:39;13.47;;;12.17;;
16393;SDS011;8306;51.128;4.476;2022-12-18T11:49:07;14.63;;;13.33;;
16393;SDS011;8306;51.128;4.476;2022-12-18T11:51:44;16.80;;;15.07;;
16393;SDS011;8306;51.128;4.476;2022-12-18T11:54:20;23.70;;;18.43;;
16393;SDS011;8306;51.128;4.476;2022-12-18T11:56:58;17.90;;;15.87;;
16393;SDS011;8306;51.128;4.476;2022-12-18T11:59:40;14.20;;;12.80;;
16393;SDS011;8306;51.128;4.476;2022-12-18T12:05:11;13.83;;;12.63;;
16393;SDS011;8306;51.128;4.476;2022-12-18T12:10:03;13.30;;;12.10;;
16393;SDS011;8306;51.128;4.476;2022-12-18T12:17:50;14.60;;;13.20;;
16393;SDS011;8306;51.128;4.476;2022-12-18T12:20:24;13.57;;;12.20;;
16393;SDS011;8306;51.128;4.476;2022-12-18T12:25:31;14.63;;;13.23;;
16393;SDS011;8306;51.128;4.476;2022-12-18T12:35:56;13.90;;;12.60;;
16393;SDS011;8306;51.128;4.476;2022-12-18T12:38:22;14.50;;;13.10;;
16393;SDS011;8306;51.128;4.476;2022-12-18T12:40:49;13.87;;;12.53;;
16393;SDS011;8306;51.128;4.476;2022-12-18T12:43:29;15.10;;;13.50;;
16393;SDS011;8306;51.128;4.476;2022-12-18T12:46:09;15.03;;;13.47;;
16393;SDS011;8306;51.128;4.476;2022-12-18T12:48:36;13.43;;;12.23;;
16393;SDS011;8306;51.128;4.476;2022-12-18T12:51:22;16.00;;;14.60;;
16393;SDS011;8306;51.128;4.476;2022-12-18T12:53:46;15.13;;;13.73;;
16393;SDS011;8306;51.128;4.476;2022-12-18T12:56:13;14.50;;;13.20;;
16393;SDS011;8306;51.128;4.476;2022-12-18T12:58:46;13.80;;;12.57;;
16393;SDS011;8306;51.128;4.476;2022-12-18T13:01:25;14.00;;;12.80;;
16393;SDS011;8306;51.128;4.476;2022-12-18T13:09:09;13.13;;;11.93;;
16393;SDS011;8306;51.128;4.476;2022-12-18T13:11:45;14.17;;;12.87;;
16393;SDS011;8306;51.128;4.476;2022-12-18T13:14:33;13.47;;;12.07;;
16393;SDS011;8306;51.128;4.476;2022-12-18T13:17:16;14.73;;;13.33;;
16393;SDS011;8306;51.128;4.476;2022-12-18T13:19:40;13.87;;;12.57;;
16393;SDS011;8306;51.128;4.476;2022-12-18T13:22:19;15.00;;;13.57;;
16393;SDS011;8306;51.128;4.476;2022-12-18T13:24:33;14.70;;;13.30;;
16393;SDS011;8306;51.128;4.476;2022-12-18T13:26:59;14.30;;;13.10;;
16393;SDS011;8306;51.128;4.476;2022-12-18T13:29:42;15.83;;;14.20;;
16393;SDS011;8306;51.128;4.476;2022-12-18T13:32:29;14.87;;;13.47;;
16393;SDS011;8306;51.128;4.476;2022-12-18T13:35:07;14.10;;;12.77;;
16393;SDS011;8306;51.128;4.476;2022-12-18T13:39:57;14.70;;;13.40;;
16393;SDS011;8306;51.128;4.476;2022-12-18T13:48:15;17.20;;;15.60;;
16393;SDS011;8306;51.128;4.476;2022-12-18T13:50:56;18.40;;;16.27;;
16393;SDS011;8306;51.128;4.476;2022-12-18T13:53:19;15.87;;;14.37;;
16393;SDS011;8306;51.128;4.476;2022-12-18T13:55:43;14.93;;;13.53;;
16393;SDS011;8306;51.128;4.476;2022-12-18T13:58:11;15.80;;;14.40;;
16393;SDS011;8306;51.128;4.476;2022-12-18T14:00:40;15.27;;;13.77;;
16393;SDS011;8306;51.128;4.476;2022-12-18T14:03:15;16.90;;;15.27;;
16393;SDS011;8306;51.128;4.476;2022-12-18T14:05:31;17.73;;;16.10;;
16393;SDS011;8306;51.128;4.476;2022-12-18T14:08:00;16.60;;;15.00;;
16393;SDS011;8306;51.128;4.476;2022-12-18T14:10:29;17.03;;;15.50;;
16393;SDS011;8306;51.128;4.476;2022-12-18T14:12:55;17.90;;;16.20;;
16393;SDS011;8306;51.128;4.476;2022-12-18T14:17:57;17.83;;;16.23;;
16393;SDS011;8306;51.128;4.476;2022-12-18T14:20:29;18.03;;;16.07;;
16393;SDS011;8306;51.128;4.476;2022-12-18T14:22:55;15.40;;;14.07;;
16393;SDS011;8306;51.128;4.476;2022-12-18T14:25:23;17.30;;;15.70;;
16393;SDS011;8306;51.128;4.476;2022-12-18T14:27:52;17.23;;;15.57;;
16393;SDS011;8306;51.128;4.476;2022-12-18T14:30:29;17.67;;;15.97;;
16393;SDS011;8306;51.128;4.476;2022-12-18T14:32:46;17.03;;;15.43;;
16393;SDS011;8306;51.128;4.476;2022-12-18T14:35:14;21.57;;;15.23;;
16393;SDS011;8306;51.128;4.476;2022-12-18T14:37:40;17.00;;;15.43;;
16393;SDS011;8306;51.128;4.476;2022-12-18T14:40:11;17.90;;;16.10;;
16393;SDS011;8306;51.128;4.476;2022-12-18T14:42:33;17.30;;;15.70;;
16393;SDS011;8306;51.128;4.476;2022-12-18T14:48:05;17.57;;;16.00;;
16393;SDS011;8306;51.128;4.476;2022-12-18T14:50:33;18.30;;;16.33;;
16393;SDS011;8306;51.128;4.476;2022-12-18T14:52:59;17.63;;;15.83;;
16393;SDS011;8306;51.128;4.476;2022-12-18T14:55:26;17.07;;;15.47;;
16393;SDS011;8306;51.128;4.476;2022-12-18T14:57:53;17.73;;;15.93;;
16393;SDS011;8306;51.128;4.476;2022-12-18T15:00:20;16.97;;;15.37;;
16393;SDS011;8306;51.128;4.476;2022-12-18T15:02:46;17.23;;;15.57;;
16393;SDS011;8306;51.128;4.476;2022-12-18T15:07:42;17.00;;;15.47;;
16393;SDS011;8306;51.128;4.476;2022-12-18T15:12:41;19.30;;;17.07;;
16393;SDS011;8306;51.128;4.476;2022-12-18T15:15:52;17.90;;;16.07;;
16393;SDS011;8306;51.128;4.476;2022-12-18T15:17:56;18.20;;;15.57;;
16393;SDS011;8306;51.128;4.476;2022-12-18T15:20:23;17.63;;;15.47;;
16393;SDS011;8306;51.128;4.476;2022-12-18T15:22:49;17.47;;;15.77;;
16393;SDS011;8306;51.128;4.476;2022-12-18T15:25:25;16.20;;;14.57;;
16393;SDS011;8306;51.128;4.476;2022-12-18T15:27:57;16.80;;;15.23;;
16393;SDS011;8306;51.128;4.476;2022-12-18T15:30:24;17.03;;;15.33;;
16393;SDS011;8306;51.128;4.476;2022-12-18T15:32:50;16.20;;;14.67;;
16393;SDS011;8306;51.128;4.476;2022-12-18T15:35:21;17.40;;;15.77;;
16393;SDS011;8306;51.128;4.476;2022-12-18T15:37:52;17.47;;;15.40;;
16393;SDS011;8306;51.128;4.476;2022-12-18T15:40:22;18.47;;;16.67;;
16393;SDS011;8306;51.128;4.476;2022-12-18T15:42:48;17.27;;;15.57;;
16393;SDS011;8306;51.128;4.476;2022-12-18T15:45:32;18.37;;;16.30;;
16393;SDS011;8306;51.128;4.476;2022-12-18T15:47:59;17.03;;;15.43;;
16393;SDS011;8306;51.128;4.476;2022-12-18T15:50:25;17.97;;;16.17;;
16393;SDS011;8306;51.128;4.476;2022-12-18T15:52:52;18.17;;;16.47;;
16393;SDS011;8306;51.128;4.476;2022-12-18T15:55:19;18.30;;;16.37;;
16393;SDS011;8306;51.128;4.476;2022-12-18T15:58:06;17.33;;;15.50;;
16393;SDS011;8306;51.128;4.476;2022-12-18T16:00:36;17.27;;;15.63;;
16393;SDS011;8306;51.128;4.476;2022-12-18T16:03:02;18.10;;;16.27;;
16393;SDS011;8306;51.128;4.476;2022-12-18T16:05:28;18.17;;;16.43;;